FCPP

Details ICAO FCPP (PNR)
Name POINTE NOIRE
Region Republic of the Congo
Timezone Africa/Brazzaville (UTC+1.0)
Plans Departing 27
Arriving 41
Stats Elevation 55 ft / 17 m (AMSL)
Location -4.816026° 11.886596°
Runways 1
Magnetic Variation 2.550° W
Sunrise 2017-12-17 04:57:56 UTC / 2017-12-17 05:57:56 Local
Sunset 2017-12-17 17:21:55 UTC / 2017-12-17 18:21:55 Local
Advertisement - Login to hide

Runways

ID Width Length Bearing (true) Bearing (mag) Surface Threshold Offset Overrun Length
17 148 ft / 45 m 8,577 ft / 2,614 m 166.09° 168.64° Asphalt 0 ft / 0 m 328 ft / 100 m
35 148 ft / 45 m 8,577 ft / 2,614 m 346.09° 348.64° Asphalt 0 ft / 0 m 328 ft / 100 m

Map

Weather


0- 5 10 15 20 25 30 35+ Temperature / ° C

Clouds and Precipitation
Forecast for 2017-12-17 12:00 UTC. Updated 39 minutes ago

Ground ~20,000 ft ~40,000 ft Winds

METAR

FCPP 170900Z 17006KT 140V210 8000 SCT012 BKN023 28/25 Q1011 NOSIG

TAF

TAF FCPP 170500Z 1706/1806 18006KT 9000 SCT012 BKN022 FEW030CB BECMG 1709/1712 4500 TSRA BECMG 1720/1723 8000 NSW SCT012 BKN022

Frequencies

Tower 118.30 MHz TWR
Approach 118.30 MHz APP
Tower 124.30 MHz TWR
Approach 124.30 MHz APP
Warning: Do not use this data for real-world aviation or navigation. No guarantee of current accuracy is given.